Lees Lick, Kentucky
Current Conditions -  °F | °C
As of 4:55 PM on Saturday 25 Oct 2014 (Local Time) from KIOB Reporting Station
Scattered Clouds Scattered Clouds  
Wind Chill: 70°   Ceiling: Unl
Heat Index: 70°   Visibility: 7mi
Dew Point: 59°   Wind: 10mph
Humidity: 68%   Direction: 280°W
Pressure: 29.98"   Gusts: NA
Location:  38.4145°N, 84.2859°W
Report Text: KIOB 252055Z AUTO 28009KT 7SM SCT029 21/15 A2998 RMK AO2
Loading
Personal Weather Stations






























Interactive Weather Map
Tropical Storm Tracking
New forecast layout! Learn more

10-Day Weather Forecast

Advertisements
Track Severe Weather on mobile